LTAZ

Nevşehir Kapadokya Airport

Airport
ICAO code
LTAZ
IATA Code
NAV
Summary
ICAO Region
EUR
ICAO Territory
Location

Nevşehir,

Serving
Nevşehir
Elevation
2835 ft
Coordinates
38° 46' 15" N , 34° 31' 17" E
Metar
LTAZ 201520Z 21024G34KT 8000 FEW027CB SCT033 BKN180 20/02 Q1006

Runways

Designator Length Width Surface Rops
11/29 3000 45 CON No/No

Airport map

Aerial View

SKYbrary Partners:

Safety knowledge contributed by: